createdAt,value
2019-02-12T00:02:28.292Z,4.50
2019-02-12T00:04:57.003Z,4.67
2019-02-12T00:07:25.559Z,4.53
2019-02-12T00:09:54.235Z,4.23
2019-02-12T00:12:22.718Z,4.40
2019-02-12T00:14:51.182Z,3.77
2019-02-12T00:17:19.723Z,4.40
2019-02-12T00:19:48.339Z,4.63
2019-02-12T00:22:16.804Z,4.17
2019-02-12T00:24:45.414Z,4.03
2019-02-12T00:27:14.085Z,4.27
2019-02-12T00:29:42.645Z,4.63
2019-02-12T00:32:11.395Z,4.20
2019-02-12T00:34:39.975Z,4.60
2019-02-12T00:37:08.514Z,4.00
2019-02-12T00:39:37.047Z,4.40
2019-02-12T00:42:05.621Z,4.17
2019-02-12T00:44:34.159Z,4.83
2019-02-12T00:47:02.618Z,3.97
2019-02-12T00:49:31.171Z,4.03
2019-02-12T00:51:59.715Z,4.03
2019-02-12T00:54:28.256Z,3.97
2019-02-12T00:56:56.819Z,3.90
2019-02-12T00:59:25.424Z,4.63
2019-02-12T01:01:53.905Z,4.57
2019-02-12T01:04:22.542Z,4.50
2019-02-12T01:06:51.072Z,4.47
2019-02-12T01:09:19.743Z,3.93
2019-02-12T01:11:48.297Z,3.93
2019-02-12T01:14:16.832Z,4.30
2019-02-12T01:16:45.303Z,4.10
2019-02-12T01:19:13.926Z,4.10
2019-02-12T01:21:42.543Z,4.27
2019-02-12T01:24:11.175Z,4.00
2019-02-12T01:26:39.826Z,4.43
2019-02-12T01:29:08.360Z,4.00
2019-02-12T01:31:36.994Z,3.93
2019-02-12T01:34:05.598Z,3.60
2019-02-12T01:36:34.197Z,4.23
2019-02-12T01:39:02.931Z,3.80
2019-02-12T01:41:31.495Z,3.70
2019-02-12T01:44:00.196Z,3.80
2019-02-12T01:46:28.746Z,3.73
2019-02-12T01:48:57.226Z,3.73
2019-02-12T01:51:25.830Z,4.10
2019-02-12T01:53:54.306Z,3.63
2019-02-12T01:56:22.924Z,3.40
2019-02-12T01:58:51.450Z,3.80
2019-02-12T02:01:20.035Z,3.70
2019-02-12T02:03:48.636Z,3.60
2019-02-12T02:06:17.322Z,3.60
2019-02-12T02:08:45.799Z,3.67
2019-02-12T02:11:14.259Z,3.30
2019-02-12T02:13:42.883Z,3.50
2019-02-12T02:16:11.444Z,3.73
2019-02-12T02:18:39.935Z,3.53
2019-02-12T02:21:08.598Z,3.63
2019-02-12T02:23:37.177Z,3.83
2019-02-12T02:26:05.783Z,3.40
2019-02-12T02:28:34.334Z,3.50
2019-02-12T02:31:02.938Z,3.33
2019-02-12T02:33:31.408Z,3.03
2019-02-12T02:35:59.968Z,3.10
2019-02-12T02:38:28.447Z,3.20
2019-02-12T02:40:57.053Z,3.23
2019-02-12T02:43:25.571Z,2.97
2019-02-12T02:45:54.201Z,3.40
2019-02-12T02:48:22.800Z,3.00
2019-02-12T02:50:51.452Z,3.07
2019-02-12T02:53:19.994Z,3.40
2019-02-12T02:55:48.590Z,3.00
2019-02-12T02:58:17.086Z,3.17
2019-02-12T03:00:45.562Z,2.90
2019-02-12T03:03:14.028Z,2.90
2019-02-12T03:05:42.655Z,2.83
2019-02-12T03:08:11.131Z,2.93
2019-02-12T03:10:39.678Z,2.80
2019-02-12T03:13:08.322Z,3.10
2019-02-12T03:15:36.991Z,2.87
2019-02-12T03:18:05.579Z,3.10
2019-02-12T03:20:34.167Z,2.90
2019-02-12T03:23:02.664Z,2.83
2019-02-12T03:25:31.196Z,3.10
2019-02-12T03:27:59.773Z,2.97
2019-02-12T03:30:28.410Z,3.03
2019-02-12T03:32:56.980Z,3.20
2019-02-12T03:35:25.534Z,3.07
2019-02-12T03:37:54.154Z,3.10
2019-02-12T03:40:22.844Z,2.77
2019-02-12T03:42:51.570Z,2.87
2019-02-12T03:45:20.199Z,2.83
2019-02-12T03:47:48.897Z,2.70
2019-02-12T03:50:17.567Z,2.87
2019-02-12T03:52:46.144Z,2.50
2019-02-12T03:55:14.772Z,2.60
2019-02-12T03:57:43.650Z,3.23
2019-02-12T04:00:14.894Z,2.43
2019-02-12T04:03:00.347Z,2.63
2019-02-12T04:05:29.033Z,2.83
2019-02-12T04:07:57.735Z,2.80
2019-02-12T04:10:26.331Z,2.97
2019-02-12T04:12:54.959Z,2.83
2019-02-12T04:15:23.566Z,2.60
2019-02-12T04:17:52.104Z,2.90
2019-02-12T04:20:20.722Z,2.60
2019-02-12T04:22:49.264Z,2.57
2019-02-12T04:25:17.967Z,2.90
2019-02-12T04:27:46.530Z,2.93
2019-02-12T04:30:15.167Z,2.70
2019-02-12T04:32:43.783Z,2.57
2019-02-12T04:35:12.403Z,2.30
2019-02-12T04:37:40.966Z,2.70
2019-02-12T04:40:11.259Z,2.30
2019-02-12T04:42:39.883Z,2.60
2019-02-12T04:45:10.685Z,2.90
2019-02-12T04:47:39.226Z,2.63
2019-02-12T04:50:10.799Z,2.60
2019-02-12T04:52:39.334Z,2.40
2019-02-12T04:55:09.958Z,2.33
2019-02-12T04:57:38.535Z,2.40
2019-02-12T05:00:16.155Z,2.70
2019-02-12T05:02:44.927Z,2.63
2019-02-12T05:05:13.523Z,2.60
2019-02-12T05:07:42.180Z,2.53
2019-02-12T05:10:16.586Z,2.50
2019-02-12T05:12:45.115Z,2.43
2019-02-12T05:15:13.688Z,2.60
2019-02-12T05:17:42.295Z,2.50
2019-02-12T05:20:13.137Z,2.67
2019-02-12T05:22:43.451Z,2.30
2019-02-12T05:25:12.979Z,2.50
2019-02-12T05:27:41.682Z,2.40
2019-02-12T05:30:12.351Z,2.20
2019-02-12T05:32:40.838Z,2.43
2019-02-12T05:35:09.550Z,2.87
2019-02-12T05:37:38.082Z,2.90
2019-02-12T05:40:09.271Z,2.60
2019-02-12T05:42:37.977Z,2.43
2019-02-12T05:45:13.356Z,2.30
2019-02-12T05:47:41.982Z,2.30
2019-02-12T05:50:15.364Z,2.40
2019-02-12T05:52:53.291Z,2.40
2019-02-12T05:55:14.243Z,2.33
2019-02-12T05:57:42.732Z,2.33
2019-02-12T06:00:20.203Z,2.30
2019-02-12T06:02:48.838Z,2.50
2019-02-12T06:05:26.094Z,2.53
2019-02-12T06:07:54.568Z,2.60
2019-02-12T06:10:23.196Z,2.57
2019-02-12T06:12:51.808Z,2.43
2019-02-12T06:15:20.475Z,2.30
2019-02-12T06:17:49.071Z,2.23
2019-02-12T06:20:17.681Z,2.40
2019-02-12T06:22:46.322Z,2.30
2019-02-12T06:25:15.015Z,2.20
2019-02-12T06:27:43.556Z,2.77
2019-02-12T06:30:12.171Z,2.23
2019-02-12T06:32:40.734Z,2.70
2019-02-12T06:35:09.956Z,2.47
2019-02-12T06:37:38.589Z,2.43
2019-02-12T06:40:10.082Z,2.40
2019-02-12T06:42:38.656Z,2.27
2019-02-12T06:45:14.201Z,2.40
2019-02-12T06:47:42.862Z,2.50
2019-02-12T06:50:12.586Z,2.17
2019-02-12T06:52:41.254Z,2.30
2019-02-12T06:55:12.689Z,2.50
2019-02-12T06:57:41.327Z,2.13
2019-02-12T07:00:14.271Z,2.40
2019-02-12T07:03:11.027Z,2.40
2019-02-12T07:05:48.030Z,2.60
2019-02-12T07:08:31.071Z,2.50
2019-02-12T07:11:05.512Z,2.50
2019-02-12T07:13:39.627Z,2.03
2019-02-12T07:16:13.667Z,2.27
2019-02-12T07:18:48.231Z,2.27
2019-02-12T07:21:31.866Z,2.30
2019-02-12T07:24:09.379Z,2.30
2019-02-12T07:26:57.345Z,2.30
2019-02-12T07:29:52.991Z,2.07
2019-02-12T07:32:47.016Z,2.50
2019-02-12T07:35:36.064Z,2.33
2019-02-12T07:38:13.274Z,2.40
2019-02-12T07:40:53.512Z,2.40
2019-02-12T07:43:27.650Z,2.27
2019-02-12T07:46:11.291Z,2.43
2019-02-12T07:48:42.847Z,2.20
2019-02-12T07:51:23.615Z,2.10
2019-02-12T07:54:04.003Z,2.37
2019-02-12T07:56:53.751Z,2.37
2019-02-12T07:59:37.118Z,2.17
2019-02-12T08:02:11.618Z,2.63
2019-02-12T08:04:52.219Z,2.30
2019-02-12T08:07:29.498Z,2.27
2019-02-12T08:10:04.004Z,2.47
2019-02-12T08:12:50.591Z,2.13
2019-02-12T08:15:36.925Z,2.30
2019-02-12T08:18:11.624Z,2.20
2019-02-12T08:21:15.126Z,2.10
2019-02-12T08:24:01.537Z,2.30
2019-02-12T08:26:52.798Z,2.30
2019-02-12T08:29:43.827Z,2.43
2019-02-12T08:32:33.036Z,2.00
2019-02-12T08:35:28.507Z,2.10
2019-02-12T08:38:20.998Z,2.20
2019-02-12T08:41:07.410Z,2.40
2019-02-12T08:43:39.051Z,2.30
2019-02-12T08:46:16.405Z,2.17
2019-02-12T08:48:54.044Z,2.20
2019-02-12T08:51:43.097Z,2.27
2019-02-12T08:54:29.216Z,2.33
2019-02-12T08:57:17.153Z,2.20
2019-02-12T08:59:54.953Z,2.20
2019-02-12T09:02:35.536Z,2.03
2019-02-12T09:05:32.548Z,2.20
2019-02-12T09:08:04.275Z,2.20
2019-02-12T09:10:50.491Z,2.13
2019-02-12T09:13:44.668Z,2.40
2019-02-12T09:16:32.944Z,2.13
2019-02-12T09:19:10.508Z,2.10
2019-02-12T09:22:09.128Z,2.03
2019-02-12T09:24:52.812Z,2.00
2019-02-12T09:27:30.370Z,2.07
2019-02-12T09:30:19.469Z,2.27
2019-02-12T09:32:59.328Z,2.50
2019-02-12T09:35:39.558Z,1.87
2019-02-12T09:38:33.700Z,2.13
2019-02-12T09:41:14.231Z,2.00
2019-02-12T09:44:00.833Z,2.10
2019-02-12T09:46:49.123Z,2.13
2019-02-12T09:49:20.710Z,2.00
2019-02-12T09:51:52.350Z,2.30
2019-02-12T09:54:23.913Z,2.37
2019-02-12T09:57:13.630Z,2.23
2019-02-12T09:59:56.922Z,2.57
2019-02-12T10:02:31.087Z,1.87
2019-02-12T10:05:22.427Z,1.90
2019-02-12T10:08:09.056Z,2.20
2019-02-12T10:10:46.379Z,1.97
2019-02-12T10:13:23.536Z,2.33
2019-02-12T10:15:55.167Z,2.20
2019-02-12T10:18:32.512Z,1.93
2019-02-12T10:21:23.799Z,1.90
2019-02-12T10:23:55.435Z,2.70
2019-02-12T10:26:42.071Z,1.87
2019-02-12T10:29:13.619Z,2.33
2019-02-12T10:31:41.219Z,2.10
2019-02-12T10:34:10.422Z,1.87
2019-02-12T10:36:39.217Z,1.93
2019-02-12T10:39:09.620Z,2.00
2019-02-12T10:41:38.335Z,1.90
2019-02-12T10:44:07.031Z,2.20
2019-02-12T10:46:35.711Z,2.40
2019-02-12T10:49:04.424Z,2.10
2019-02-12T10:51:33.151Z,2.00
2019-02-12T10:54:01.914Z,2.60
2019-02-12T10:56:30.581Z,2.20
2019-02-12T10:58:59.256Z,2.50
2019-02-12T11:01:27.793Z,2.20
2019-02-12T11:03:56.363Z,2.40
2019-02-12T11:06:25.034Z,2.53
2019-02-12T11:08:53.639Z,2.53
2019-02-12T11:11:22.282Z,2.40
2019-02-12T11:13:50.900Z,2.20
2019-02-12T11:16:19.623Z,2.07
2019-02-12T11:18:48.306Z,2.40
2019-02-12T11:21:16.922Z,2.00
2019-02-12T11:23:45.871Z,2.07
2019-02-12T11:26:14.541Z,2.57
2019-02-12T11:28:43.076Z,2.33
2019-02-12T11:31:11.602Z,2.17
2019-02-12T11:33:40.303Z,2.80
2019-02-12T11:36:08.909Z,2.10
2019-02-12T11:38:37.530Z,2.03
2019-02-12T11:41:06.236Z,2.20
2019-02-12T11:43:34.691Z,1.87
2019-02-12T11:46:03.930Z,1.80
2019-02-12T11:48:32.678Z,2.10
2019-02-12T11:51:01.310Z,2.30
2019-02-12T11:53:30.044Z,1.90
2019-02-12T11:55:58.514Z,1.90
2019-02-12T11:58:27.067Z,2.20
2019-02-12T12:00:57.627Z,2.10
2019-02-12T12:03:27.026Z,2.70
2019-02-12T12:05:55.680Z,2.50
2019-02-12T12:08:24.379Z,2.13
2019-02-12T12:10:52.926Z,2.57
2019-02-12T12:13:21.578Z,2.47
2019-02-12T12:15:50.210Z,2.20
2019-02-12T12:18:18.819Z,2.47
2019-02-12T12:20:47.426Z,2.50
2019-02-12T12:23:15.983Z,2.53
2019-02-12T12:25:44.606Z,2.57
2019-02-12T12:28:13.288Z,2.17
2019-02-12T12:30:41.845Z,2.10
2019-02-12T12:33:10.407Z,2.23
2019-02-12T12:35:39.090Z,2.20
2019-02-12T12:38:07.755Z,2.37
2019-02-12T12:40:36.403Z,2.40
2019-02-12T12:43:05.009Z,2.03
2019-02-12T12:45:33.643Z,2.30
2019-02-12T12:48:02.283Z,2.63
2019-02-12T12:50:30.842Z,2.17
2019-02-12T12:52:59.402Z,2.10
2019-02-12T12:55:27.959Z,2.23
2019-02-12T12:57:57.333Z,1.90
2019-02-12T13:00:26.327Z,2.10
2019-02-12T13:02:54.875Z,1.77
2019-02-12T13:05:23.376Z,2.37
2019-02-12T13:07:52.050Z,2.67
2019-02-12T13:10:20.647Z,1.90
2019-02-12T13:12:49.137Z,1.60
2019-02-12T13:15:17.940Z,1.73
2019-02-12T13:17:46.587Z,1.80
2019-02-12T13:20:19.585Z,1.80
2019-02-12T13:22:48.303Z,1.90
2019-02-12T13:25:17.060Z,2.00
2019-02-12T13:27:45.820Z,2.20
2019-02-12T13:30:18.598Z,2.10
2019-02-12T13:32:47.500Z,1.63
2019-02-12T13:35:16.397Z,2.00
2019-02-12T13:37:45.040Z,1.87
2019-02-12T13:40:13.921Z,2.03
2019-02-12T13:42:42.557Z,1.77
2019-02-12T13:45:13.627Z,1.93
2019-02-12T13:47:42.515Z,2.10
2019-02-12T13:50:13.037Z,1.83
2019-02-12T13:52:41.880Z,1.73
2019-02-12T13:55:16.961Z,1.90
2019-02-12T13:57:41.945Z,1.90
2019-02-12T14:00:15.637Z,2.00
2019-02-12T14:02:44.310Z,2.00
2019-02-12T14:05:23.833Z,1.77
2019-02-12T14:07:52.419Z,1.70
2019-02-12T14:10:20.988Z,1.97
2019-02-12T14:12:49.619Z,1.60
2019-02-12T14:15:18.174Z,1.60
2019-02-12T14:17:46.775Z,1.97
2019-02-12T14:20:16.727Z,1.67
2019-02-12T14:22:45.570Z,1.77
2019-02-12T14:25:15.309Z,1.93
2019-02-12T14:27:43.939Z,1.63
2019-02-12T14:30:14.530Z,1.63
2019-02-12T14:32:43.214Z,1.50
2019-02-12T14:35:12.758Z,2.00
2019-02-12T14:37:41.399Z,1.70
2019-02-12T14:40:14.527Z,1.70
2019-02-12T14:42:43.131Z,1.80
2019-02-12T14:45:21.226Z,1.40
2019-02-12T14:47:49.838Z,1.87
2019-02-12T14:50:19.762Z,1.70
2019-02-12T14:52:48.468Z,1.87
2019-02-12T14:55:17.027Z,1.80
2019-02-12T14:57:45.732Z,1.73
2019-02-12T15:00:18.704Z,1.73
2019-02-12T15:02:47.515Z,3.40
2019-02-12T15:05:16.400Z,2.67
2019-02-12T15:07:45.164Z,3.17
2019-02-12T15:10:15.608Z,2.77
2019-02-12T15:12:44.323Z,2.97
2019-02-12T15:15:13.723Z,2.70
2019-02-12T15:17:42.331Z,3.23
2019-02-12T15:20:12.065Z,2.70
2019-02-12T15:22:40.783Z,2.30
2019-02-12T15:25:11.635Z,2.80
2019-02-12T15:27:40.351Z,2.50
2019-02-12T15:30:16.574Z,2.60
2019-02-12T15:32:45.188Z,2.80
2019-02-12T15:35:14.143Z,2.50
2019-02-12T15:37:42.843Z,2.23
2019-02-12T15:40:16.444Z,2.30
2019-02-12T15:42:45.129Z,2.43
2019-02-12T15:45:16.343Z,2.00
2019-02-12T15:47:45.023Z,2.20
2019-02-12T15:50:13.563Z,2.13
2019-02-12T15:52:42.116Z,2.93
2019-02-12T15:55:12.908Z,1.90
2019-02-12T15:57:45.142Z,2.20
2019-02-12T16:00:15.738Z,2.17
2019-02-12T16:02:44.775Z,2.03
2019-02-12T16:05:13.956Z,1.80
2019-02-12T16:07:44.823Z,2.10
2019-02-12T16:10:19.722Z,1.97
2019-02-12T16:12:48.914Z,1.87
2019-02-12T16:15:21.908Z,1.83
2019-02-12T16:17:49.924Z,2.10
2019-02-12T16:20:18.618Z,2.20
2019-02-12T16:22:47.219Z,2.00
2019-02-12T16:25:15.955Z,1.90
2019-02-12T16:27:44.652Z,1.50
2019-02-12T16:30:15.726Z,2.17
2019-02-12T16:32:44.454Z,2.10
2019-02-12T16:35:14.935Z,1.67
2019-02-12T16:37:56.858Z,1.80
2019-02-12T16:40:25.474Z,1.67
2019-02-12T16:42:54.019Z,2.03
2019-02-12T16:45:43.833Z,2.17
2019-02-12T16:48:12.438Z,1.77
2019-02-12T16:50:40.909Z,1.83
2019-02-12T16:53:09.533Z,2.60
2019-02-12T16:55:38.151Z,2.10
2019-02-12T16:58:06.827Z,2.13
2019-02-12T17:00:35.534Z,2.53
2019-02-12T17:03:04.565Z,1.97
2019-02-12T17:05:33.224Z,2.07
2019-02-12T17:08:01.780Z,2.20
2019-02-12T17:10:30.406Z,2.10
2019-02-12T17:12:59.010Z,2.27
2019-02-12T17:15:27.650Z,2.10
2019-02-12T17:17:56.258Z,2.00
2019-02-12T17:20:25.205Z,2.03
2019-02-12T17:22:54.055Z,2.33
2019-02-12T17:25:22.665Z,1.90
2019-02-12T17:27:51.275Z,2.03
2019-02-12T17:30:19.953Z,2.10
2019-02-12T17:32:48.619Z,2.37
2019-02-12T17:35:17.259Z,2.50
2019-02-12T17:37:45.956Z,2.57
2019-02-12T17:40:16.849Z,2.30
2019-02-12T17:42:45.532Z,2.30
2019-02-12T17:45:18.584Z,2.03
2019-02-12T17:47:47.228Z,2.73
2019-02-12T17:50:16.503Z,2.60
2019-02-12T17:52:45.358Z,2.17
2019-02-12T17:55:14.026Z,2.50
2019-02-12T17:57:42.586Z,2.20
2019-02-12T18:00:19.746Z,2.53
2019-02-12T18:02:48.479Z,2.70
2019-02-12T18:05:17.270Z,2.87
2019-02-12T18:07:45.761Z,2.67
2019-02-12T18:10:14.431Z,2.60
2019-02-12T18:12:43.058Z,2.70
2019-02-12T18:15:30.953Z,2.80
2019-02-12T18:17:59.647Z,3.03
2019-02-12T18:20:28.182Z,2.70
2019-02-12T18:22:56.828Z,2.50
2019-02-12T18:25:25.358Z,2.73
2019-02-12T18:27:53.988Z,2.40
2019-02-12T18:30:22.846Z,2.67
2019-02-12T18:32:51.546Z,2.60
2019-02-12T18:35:20.062Z,2.50
2019-02-12T18:37:48.629Z,2.50
2019-02-12T18:40:18.323Z,2.50
2019-02-12T18:42:47.041Z,2.50
2019-02-12T18:45:26.313Z,2.70
2019-02-12T18:47:54.903Z,2.60
2019-02-12T18:50:23.583Z,2.10
2019-02-12T18:52:52.227Z,2.60
2019-02-12T18:55:20.723Z,2.20
2019-02-12T18:57:49.326Z,2.70
2019-02-12T19:00:22.745Z,2.40
2019-02-12T19:02:51.616Z,2.33
2019-02-12T19:05:20.221Z,3.10
2019-02-12T19:07:48.849Z,2.80
2019-02-12T19:10:18.338Z,2.67
2019-02-12T19:12:47.237Z,2.70
2019-02-12T19:15:22.410Z,3.30
2019-02-12T19:18:02.789Z,3.30
2019-02-12T19:20:31.495Z,3.27
2019-02-12T19:23:00.097Z,3.67
2019-02-12T19:25:28.728Z,3.90
2019-02-12T19:27:57.344Z,3.60
2019-02-12T19:30:27.478Z,3.60
2019-02-12T19:32:56.093Z,3.70
2019-02-12T19:35:24.719Z,3.33
2019-02-12T19:37:53.326Z,3.40
2019-02-12T19:40:22.058Z,3.53
2019-02-12T19:42:50.783Z,3.70
2019-02-12T19:45:19.493Z,3.53
2019-02-12T19:47:48.214Z,3.73
2019-02-12T19:50:16.881Z,3.50
2019-02-12T19:52:45.453Z,3.53
2019-02-12T19:55:14.077Z,3.07
2019-02-12T19:57:42.715Z,3.37
2019-02-12T20:00:18.702Z,3.60
2019-02-12T20:02:47.534Z,3.67
2019-02-12T20:05:16.264Z,3.23
2019-02-12T20:07:44.959Z,3.20
2019-02-12T20:10:14.572Z,3.63
2019-02-12T20:12:43.203Z,3.53
2019-02-12T20:15:14.422Z,3.53
2019-02-12T20:17:43.038Z,3.20
2019-02-12T20:20:13.184Z,3.40
2019-02-12T20:22:41.852Z,2.93
2019-02-12T20:25:11.234Z,3.13
2019-02-12T20:27:39.851Z,2.93
2019-02-12T20:30:13.838Z,2.77
2019-02-12T20:32:42.424Z,2.90
2019-02-12T20:35:16.177Z,3.30
2019-02-12T20:37:44.770Z,2.90
2019-02-12T20:40:14.451Z,3.00
2019-02-12T20:42:43.148Z,3.13
2019-02-12T20:45:19.182Z,2.60
2019-02-12T20:47:47.916Z,2.93
2019-02-12T20:50:20.803Z,2.70
2019-02-12T20:52:49.413Z,3.30
2019-02-12T20:55:18.097Z,2.80
2019-02-12T20:57:46.674Z,2.53
2019-02-12T21:00:20.718Z,2.90
2019-02-12T21:02:49.259Z,3.10
2019-02-12T21:05:17.830Z,2.43
2019-02-12T21:07:46.453Z,2.73
2019-02-12T21:10:19.566Z,2.80
2019-02-12T21:12:48.190Z,2.60
2019-02-12T21:15:22.668Z,2.70
2019-02-12T21:17:51.296Z,2.70
2019-02-12T21:20:20.274Z,2.47
2019-02-12T21:22:48.997Z,3.03
2019-02-12T21:25:17.873Z,2.70
2019-02-12T21:27:46.631Z,2.30
2019-02-12T21:30:26.551Z,2.83
2019-02-12T21:32:55.245Z,2.90
2019-02-12T21:35:23.943Z,2.60
2019-02-12T21:37:52.635Z,2.40
2019-02-12T21:40:26.488Z,2.60
2019-02-12T21:42:55.087Z,2.73
2019-02-12T21:45:23.683Z,2.90
2019-02-12T21:47:52.347Z,2.70
2019-02-12T21:50:20.981Z,2.47
2019-02-12T21:52:50.800Z,2.60
2019-02-12T21:55:21.157Z,2.50
2019-02-12T21:57:49.915Z,2.50
2019-02-12T22:00:22.561Z,2.40
2019-02-12T22:02:52.424Z,2.70
2019-02-12T22:05:21.039Z,2.30
2019-02-12T22:07:49.744Z,2.57
2019-02-12T22:10:23.862Z,2.50
2019-02-12T22:12:52.765Z,2.20
2019-02-12T22:15:21.383Z,2.90
2019-02-12T22:17:50.032Z,2.70
2019-02-12T22:20:23.100Z,2.47
2019-02-12T22:22:51.778Z,2.37
2019-02-12T22:25:20.354Z,2.50
2019-02-12T22:27:48.963Z,2.73
2019-02-12T22:30:23.000Z,2.27
2019-02-12T22:32:51.563Z,2.40
2019-02-12T22:35:20.238Z,2.30
2019-02-12T22:37:48.890Z,2.73
2019-02-12T22:40:18.073Z,2.30
2019-02-12T22:42:46.680Z,2.20
2019-02-12T22:45:21.470Z,2.40
2019-02-12T22:47:50.143Z,2.10
2019-02-12T22:50:18.751Z,2.57
2019-02-12T22:52:47.414Z,2.53
2019-02-12T22:55:16.035Z,2.80
2019-02-12T22:57:49.325Z,2.83
2019-02-12T23:00:46.881Z,2.60
2019-02-12T23:03:15.673Z,2.63
2019-02-12T23:05:44.269Z,2.60
2019-02-12T23:08:13.428Z,3.13
2019-02-12T23:10:42.120Z,2.33
2019-02-12T23:13:10.970Z,2.80
2019-02-12T23:15:39.627Z,2.67
2019-02-12T23:18:08.271Z,2.80
2019-02-12T23:20:36.901Z,3.30
2019-02-12T23:23:05.705Z,2.83
2019-02-12T23:25:34.267Z,3.00
2019-02-12T23:28:02.920Z,2.60
2019-02-12T23:30:31.456Z,2.60
2019-02-12T23:33:00.132Z,2.50
2019-02-12T23:35:28.811Z,2.80
2019-02-12T23:37:57.412Z,2.97
2019-02-12T23:40:27.238Z,2.90
2019-02-12T23:42:55.727Z,2.83
2019-02-12T23:45:24.323Z,2.87
2019-02-12T23:47:53.002Z,2.40
2019-02-12T23:50:21.542Z,3.00
2019-02-12T23:52:50.087Z,2.43
2019-02-12T23:55:18.726Z,2.47
2019-02-12T23:57:47.332Z,2.97
